sensor_id;sensor_type;location;lat;lon;timestamp;P1;durP1;ratioP1;P2;durP2;ratioP2
42972;SDS011;28610;51.214;6.962;2022-07-22T00:00:51;23.35;;;12.23;;
42972;SDS011;28610;51.214;6.962;2022-07-22T00:03:37;25.67;;;12.35;;
42972;SDS011;28610;51.214;6.962;2022-07-22T00:06:24;19.38;;;10.80;;
42972;SDS011;28610;51.214;6.962;2022-07-22T00:09:10;21.08;;;10.73;;
42972;SDS011;28610;51.214;6.962;2022-07-22T00:11:55;20.88;;;10.77;;
42972;SDS011;28610;51.214;6.962;2022-07-22T00:14:41;20.20;;;9.88;;
42972;SDS011;28610;51.214;6.962;2022-07-22T00:17:26;18.02;;;9.73;;
42972;SDS011;28610;51.214;6.962;2022-07-22T00:20:12;22.75;;;9.60;;
42972;SDS011;28610;51.214;6.962;2022-07-22T00:22:59;15.85;;;9.70;;
42972;SDS011;28610;51.214;6.962;2022-07-22T00:25:44;17.30;;;10.10;;
42972;SDS011;28610;51.214;6.962;2022-07-22T00:28:29;18.75;;;10.15;;
42972;SDS011;28610;51.214;6.962;2022-07-22T00:31:15;21.80;;;11.55;;
42972;SDS011;28610;51.214;6.962;2022-07-22T00:34:00;17.02;;;11.07;;
42972;SDS011;28610;51.214;6.962;2022-07-22T00:36:46;23.75;;;11.75;;
42972;SDS011;28610;51.214;6.962;2022-07-22T00:39:33;19.27;;;12.23;;
42972;SDS011;28610;51.214;6.962;2022-07-22T00:42:18;17.20;;;11.32;;
42972;SDS011;28610;51.214;6.962;2022-07-22T00:45:04;19.52;;;11.52;;
42972;SDS011;28610;51.214;6.962;2022-07-22T00:47:50;20.30;;;11.85;;
42972;SDS011;28610;51.214;6.962;2022-07-22T00:50:35;17.48;;;10.25;;
42972;SDS011;28610;51.214;6.962;2022-07-22T00:53:21;18.88;;;11.10;;
42972;SDS011;28610;51.214;6.962;2022-07-22T00:56:09;20.45;;;12.00;;
42972;SDS011;28610;51.214;6.962;2022-07-22T00:58:56;19.35;;;11.60;;
42972;SDS011;28610;51.214;6.962;2022-07-22T01:01:43;20.08;;;11.32;;
42972;SDS011;28610;51.214;6.962;2022-07-22T01:04:29;22.47;;;11.70;;
42972;SDS011;28610;51.214;6.962;2022-07-22T01:07:14;20.17;;;11.82;;
42972;SDS011;28610;51.214;6.962;2022-07-22T01:09:59;24.05;;;12.43;;
42972;SDS011;28610;51.214;6.962;2022-07-22T01:12:47;24.60;;;12.07;;
42972;SDS011;28610;51.214;6.962;2022-07-22T01:15:33;23.77;;;12.18;;
42972;SDS011;28610;51.214;6.962;2022-07-22T01:18:18;20.77;;;12.05;;
42972;SDS011;28610;51.214;6.962;2022-07-22T01:21:06;23.08;;;12.48;;
42972;SDS011;28610;51.214;6.962;2022-07-22T01:23:52;27.65;;;13.95;;
42972;SDS011;28610;51.214;6.962;2022-07-22T01:26:37;27.92;;;14.18;;
42972;SDS011;28610;51.214;6.962;2022-07-22T01:29:23;31.45;;;16.10;;
42972;SDS011;28610;51.214;6.962;2022-07-22T01:32:08;25.55;;;14.50;;
42972;SDS011;28610;51.214;6.962;2022-07-22T01:34:54;24.90;;;13.85;;
42972;SDS011;28610;51.214;6.962;2022-07-22T01:37:41;28.23;;;15.20;;
42972;SDS011;28610;51.214;6.962;2022-07-22T01:40:26;32.58;;;15.40;;
42972;SDS011;28610;51.214;6.962;2022-07-22T01:43:12;27.63;;;14.30;;
42972;SDS011;28610;51.214;6.962;2022-07-22T01:46:01;23.17;;;14.55;;
42972;SDS011;28610;51.214;6.962;2022-07-22T01:48:46;26.23;;;15.10;;
42972;SDS011;28610;51.214;6.962;2022-07-22T01:51:32;23.17;;;14.05;;
42972;SDS011;28610;51.214;6.962;2022-07-22T01:54:19;23.52;;;13.60;;
42972;SDS011;28610;51.214;6.962;2022-07-22T01:57:04;32.05;;;15.43;;
42972;SDS011;28610;51.214;6.962;2022-07-22T01:59:49;24.50;;;14.07;;
42972;SDS011;28610;51.214;6.962;2022-07-22T02:02:35;32.50;;;15.23;;
42972;SDS011;28610;51.214;6.962;2022-07-22T02:05:20;29.83;;;14.40;;
42972;SDS011;28610;51.214;6.962;2022-07-22T02:08:07;28.00;;;14.40;;
42972;SDS011;28610;51.214;6.962;2022-07-22T02:10:55;21.10;;;13.30;;
42972;SDS011;28610;51.214;6.962;2022-07-22T02:13:41;20.50;;;13.37;;
42972;SDS011;28610;51.214;6.962;2022-07-22T02:16:26;23.40;;;13.17;;
42972;SDS011;28610;51.214;6.962;2022-07-22T02:19:12;22.35;;;13.55;;
42972;SDS011;28610;51.214;6.962;2022-07-22T02:21:57;22.47;;;13.10;;
42972;SDS011;28610;51.214;6.962;2022-07-22T02:24:42;26.50;;;15.00;;
42972;SDS011;28610;51.214;6.962;2022-07-22T02:27:29;26.13;;;15.23;;
42972;SDS011;28610;51.214;6.962;2022-07-22T02:30:14;33.53;;;17.58;;
42972;SDS011;28610;51.214;6.962;2022-07-22T02:33:00;32.17;;;18.30;;
42972;SDS011;28610;51.214;6.962;2022-07-22T02:35:45;47.50;;;23.23;;
42972;SDS011;28610;51.214;6.962;2022-07-22T02:38:31;53.13;;;24.07;;
42972;SDS011;28610;51.214;6.962;2022-07-22T02:41:16;42.23;;;21.97;;
42972;SDS011;28610;51.214;6.962;2022-07-22T02:44:04;46.53;;;23.87;;
42972;SDS011;28610;51.214;6.962;2022-07-22T02:46:50;42.92;;;23.63;;
42972;SDS011;28610;51.214;6.962;2022-07-22T02:49:36;46.00;;;23.88;;
42972;SDS011;28610;51.214;6.962;2022-07-22T02:52:21;48.67;;;25.63;;
42972;SDS011;28610;51.214;6.962;2022-07-22T02:55:07;47.45;;;24.73;;
42972;SDS011;28610;51.214;6.962;2022-07-22T02:57:53;51.65;;;26.08;;
42972;SDS011;28610;51.214;6.962;2022-07-22T03:00:40;56.60;;;25.23;;
42972;SDS011;28610;51.214;6.962;2022-07-22T03:03:25;53.40;;;25.73;;
42972;SDS011;28610;51.214;6.962;2022-07-22T03:06:11;50.63;;;25.60;;
42972;SDS011;28610;51.214;6.962;2022-07-22T03:08:57;48.92;;;24.73;;
42972;SDS011;28610;51.214;6.962;2022-07-22T03:11:42;56.08;;;25.33;;
42972;SDS011;28610;51.214;6.962;2022-07-22T03:14:28;47.95;;;23.77;;
42972;SDS011;28610;51.214;6.962;2022-07-22T03:17:15;61.42;;;25.50;;
42972;SDS011;28610;51.214;6.962;2022-07-22T03:20:01;60.38;;;25.77;;
42972;SDS011;28610;51.214;6.962;2022-07-22T03:22:47;55.65;;;25.05;;
42972;SDS011;28610;51.214;6.962;2022-07-22T03:25:32;51.38;;;23.85;;
42972;SDS011;28610;51.214;6.962;2022-07-22T03:28:18;48.65;;;25.02;;
42972;SDS011;28610;51.214;6.962;2022-07-22T03:31:03;60.67;;;26.92;;
42972;SDS011;28610;51.214;6.962;2022-07-22T03:33:50;45.45;;;24.23;;
42972;SDS011;28610;51.214;6.962;2022-07-22T03:36:35;51.65;;;25.30;;
42972;SDS011;28610;51.214;6.962;2022-07-22T03:39:20;55.10;;;24.30;;
42972;SDS011;28610;51.214;6.962;2022-07-22T03:42:06;54.92;;;24.90;;
42972;SDS011;28610;51.214;6.962;2022-07-22T03:44:51;49.38;;;22.65;;
42972;SDS011;28610;51.214;6.962;2022-07-22T03:47:36;40.47;;;19.48;;
42972;SDS011;28610;51.214;6.962;2022-07-22T03:50:23;54.67;;;23.38;;
42972;SDS011;28610;51.214;6.962;2022-07-22T03:53:09;34.80;;;18.00;;
42972;SDS011;28610;51.214;6.962;2022-07-22T03:55:55;34.35;;;18.50;;
42972;SDS011;28610;51.214;6.962;2022-07-22T03:58:40;34.72;;;17.85;;
42972;SDS011;28610;51.214;6.962;2022-07-22T04:01:26;41.38;;;18.02;;
42972;SDS011;28610;51.214;6.962;2022-07-22T04:04:11;33.88;;;16.23;;
42972;SDS011;28610;51.214;6.962;2022-07-22T04:06:58;30.23;;;15.90;;
42972;SDS011;28610;51.214;6.962;2022-07-22T04:09:43;29.92;;;15.48;;
42972;SDS011;28610;51.214;6.962;2022-07-22T04:12:29;28.75;;;15.13;;
42972;SDS011;28610;51.214;6.962;2022-07-22T04:15:14;26.67;;;14.23;;
42972;SDS011;28610;51.214;6.962;2022-07-22T04:17:59;29.92;;;15.20;;
42972;SDS011;28610;51.214;6.962;2022-07-22T04:20:45;26.58;;;14.02;;
42972;SDS011;28610;51.214;6.962;2022-07-22T04:23:32;29.50;;;14.07;;
42972;SDS011;28610;51.214;6.962;2022-07-22T04:26:17;27.10;;;13.77;;
42972;SDS011;28610;51.214;6.962;2022-07-22T04:29:03;27.70;;;13.65;;
42972;SDS011;28610;51.214;6.962;2022-07-22T04:31:48;25.35;;;11.32;;
42972;SDS011;28610;51.214;6.962;2022-07-22T04:34:33;23.00;;;9.98;;
42972;SDS011;28610;51.214;6.962;2022-07-22T04:37:19;17.63;;;8.40;;
42972;SDS011;28610;51.214;6.962;2022-07-22T04:40:07;19.60;;;8.48;;
42972;SDS011;28610;51.214;6.962;2022-07-22T04:42:53;13.82;;;8.15;;
42972;SDS011;28610;51.214;6.962;2022-07-22T04:45:38;18.33;;;8.68;;
42972;SDS011;28610;51.214;6.962;2022-07-22T04:48:24;21.77;;;9.00;;
42972;SDS011;28610;51.214;6.962;2022-07-22T04:51:10;16.73;;;8.98;;
42972;SDS011;28610;51.214;6.962;2022-07-22T04:53:55;17.33;;;8.65;;
42972;SDS011;28610;51.214;6.962;2022-07-22T04:56:42;23.40;;;9.60;;
42972;SDS011;28610;51.214;6.962;2022-07-22T04:59:27;18.10;;;8.18;;
42972;SDS011;28610;51.214;6.962;2022-07-22T05:02:12;18.98;;;8.85;;
42972;SDS011;28610;51.214;6.962;2022-07-22T05:04:58;19.05;;;8.73;;
42972;SDS011;28610;51.214;6.962;2022-07-22T05:07:43;16.92;;;8.15;;
42972;SDS011;28610;51.214;6.962;2022-07-22T05:10:29;20.13;;;8.20;;
42972;SDS011;28610;51.214;6.962;2022-07-22T05:13:17;20.13;;;8.18;;
42972;SDS011;28610;51.214;6.962;2022-07-22T05:16:02;18.25;;;8.05;;
42972;SDS011;28610;51.214;6.962;2022-07-22T05:18:48;18.95;;;7.68;;
42972;SDS011;28610;51.214;6.962;2022-07-22T05:21:33;15.68;;;7.57;;
42972;SDS011;28610;51.214;6.962;2022-07-22T05:24:19;16.52;;;7.68;;
42972;SDS011;28610;51.214;6.962;2022-07-22T05:27:05;15.90;;;7.85;;
42972;SDS011;28610;51.214;6.962;2022-07-22T05:29:52;17.75;;;6.88;;
42972;SDS011;28610;51.214;6.962;2022-07-22T05:32:37;16.50;;;8.10;;
42972;SDS011;28610;51.214;6.962;2022-07-22T05:35:23;19.23;;;7.88;;
42972;SDS011;28610;51.214;6.962;2022-07-22T05:38:08;18.73;;;7.72;;
42972;SDS011;28610;51.214;6.962;2022-07-22T05:40:53;20.73;;;8.40;;
42972;SDS011;28610;51.214;6.962;2022-07-22T05:43:39;20.20;;;8.68;;
42972;SDS011;28610;51.214;6.962;2022-07-22T05:46:26;20.58;;;8.40;;
42972;SDS011;28610;51.214;6.962;2022-07-22T05:49:11;19.52;;;8.02;;
42972;SDS011;28610;51.214;6.962;2022-07-22T05:51:56;14.95;;;8.02;;
42972;SDS011;28610;51.214;6.962;2022-07-22T05:54:43;13.45;;;6.97;;
42972;SDS011;28610;51.214;6.962;2022-07-22T05:57:29;13.23;;;7.28;;
42972;SDS011;28610;51.214;6.962;2022-07-22T06:00:14;18.67;;;8.00;;
42972;SDS011;28610;51.214;6.962;2022-07-22T06:03:01;14.13;;;7.28;;
42972;SDS011;28610;51.214;6.962;2022-07-22T06:05:47;15.18;;;7.25;;
42972;SDS011;28610;51.214;6.962;2022-07-22T06:08:32;17.77;;;7.55;;
42972;SDS011;28610;51.214;6.962;2022-07-22T06:11:18;16.90;;;7.03;;
42972;SDS011;28610;51.214;6.962;2022-07-22T06:14:04;15.00;;;7.25;;
42972;SDS011;28610;51.214;6.962;2022-07-22T06:16:49;15.55;;;6.80;;
42972;SDS011;28610;51.214;6.962;2022-07-22T06:19:36;14.23;;;6.75;;
42972;SDS011;28610;51.214;6.962;2022-07-22T06:22:22;13.38;;;6.50;;
42972;SDS011;28610;51.214;6.962;2022-07-22T06:25:07;15.10;;;5.90;;
42972;SDS011;28610;51.214;6.962;2022-07-22T06:27:53;14.85;;;6.70;;
42972;SDS011;28610;51.214;6.962;2022-07-22T06:30:39;16.85;;;6.50;;
42972;SDS011;28610;51.214;6.962;2022-07-22T06:33:25;14.80;;;6.13;;
42972;SDS011;28610;51.214;6.962;2022-07-22T06:36:11;13.00;;;5.70;;
42972;SDS011;28610;51.214;6.962;2022-07-22T06:38:58;13.73;;;6.22;;
42972;SDS011;28610;51.214;6.962;2022-07-22T06:41:43;21.58;;;7.18;;
42972;SDS011;28610;51.214;6.962;2022-07-22T06:44:29;18.25;;;7.10;;
42972;SDS011;28610;51.214;6.962;2022-07-22T06:47:14;13.32;;;6.95;;
42972;SDS011;28610;51.214;6.962;2022-07-22T06:50:00;16.33;;;7.53;;
42972;SDS011;28610;51.214;6.962;2022-07-22T06:52:47;15.98;;;8.75;;
42972;SDS011;28610;51.214;6.962;2022-07-22T06:55:32;19.17;;;9.13;;
42972;SDS011;28610;51.214;6.962;2022-07-22T06:58:18;19.35;;;10.30;;
42972;SDS011;28610;51.214;6.962;2022-07-22T07:01:03;20.35;;;11.50;;
42972;SDS011;28610;51.214;6.962;2022-07-22T07:03:48;24.38;;;13.40;;
42972;SDS011;28610;51.214;6.962;2022-07-22T07:06:34;22.38;;;12.60;;
42972;SDS011;28610;51.214;6.962;2022-07-22T07:09:21;23.80;;;12.65;;
42972;SDS011;28610;51.214;6.962;2022-07-22T07:12:07;25.02;;;13.25;;
42972;SDS011;28610;51.214;6.962;2022-07-22T07:14:52;26.20;;;12.85;;
42972;SDS011;28610;51.214;6.962;2022-07-22T07:17:37;21.20;;;11.77;;
42972;SDS011;28610;51.214;6.962;2022-07-22T07:20:23;18.63;;;11.02;;
42972;SDS011;28610;51.214;6.962;2022-07-22T07:23:09;21.58;;;11.40;;
42972;SDS011;28610;51.214;6.962;2022-07-22T07:25:56;22.88;;;11.98;;
42972;SDS011;28610;51.214;6.962;2022-07-22T07:28:41;22.67;;;11.52;;
42972;SDS011;28610;51.214;6.962;2022-07-22T07:31:26;19.65;;;11.27;;
42972;SDS011;28610;51.214;6.962;2022-07-22T07:34:12;21.38;;;10.98;;
42972;SDS011;28610;51.214;6.962;2022-07-22T07:36:57;18.38;;;9.23;;
42972;SDS011;28610;51.214;6.962;2022-07-22T07:39:43;18.95;;;9.57;;
42972;SDS011;28610;51.214;6.962;2022-07-22T07:42:30;18.45;;;8.85;;
42972;SDS011;28610;51.214;6.962;2022-07-22T07:45:15;16.92;;;8.30;;
42972;SDS011;28610;51.214;6.962;2022-07-22T07:48:01;15.38;;;7.18;;
42972;SDS011;28610;51.214;6.962;2022-07-22T07:50:46;18.23;;;6.73;;
42972;SDS011;28610;51.214;6.962;2022-07-22T07:53:31;13.32;;;6.63;;
42972;SDS011;28610;51.214;6.962;2022-07-22T07:56:17;11.75;;;5.60;;
42972;SDS011;28610;51.214;6.962;2022-07-22T07:59:04;12.85;;;5.30;;
42972;SDS011;28610;51.214;6.962;2022-07-22T08:01:49;14.88;;;6.03;;
42972;SDS011;28610;51.214;6.962;2022-07-22T08:04:35;11.40;;;5.45;;
42972;SDS011;28610;51.214;6.962;2022-07-22T08:07:21;13.07;;;5.25;;
42972;SDS011;28610;51.214;6.962;2022-07-22T08:10:06;13.15;;;5.65;;
42972;SDS011;28610;51.214;6.962;2022-07-22T08:12:53;12.57;;;5.80;;
42972;SDS011;28610;51.214;6.962;2022-07-22T08:15:42;10.82;;;5.35;;
42972;SDS011;28610;51.214;6.962;2022-07-22T08:18:28;11.88;;;5.43;;
42972;SDS011;28610;51.214;6.962;2022-07-22T08:21:14;13.52;;;5.63;;
42972;SDS011;28610;51.214;6.962;2022-07-22T08:23:59;10.95;;;5.40;;
42972;SDS011;28610;51.214;6.962;2022-07-22T08:26:45;12.68;;;5.43;;
42972;SDS011;28610;51.214;6.962;2022-07-22T08:29:30;15.48;;;5.57;;
42972;SDS011;28610;51.214;6.962;2022-07-22T08:32:17;11.00;;;5.55;;
42972;SDS011;28610;51.214;6.962;2022-07-22T08:35:02;11.98;;;5.95;;
42972;SDS011;28610;51.214;6.962;2022-07-22T08:37:49;13.82;;;5.47;;
42972;SDS011;28610;51.214;6.962;2022-07-22T08:40:34;9.68;;;5.15;;
42972;SDS011;28610;51.214;6.962;2022-07-22T08:43:20;12.65;;;4.90;;
42972;SDS011;28610;51.214;6.962;2022-07-22T08:46:05;15.88;;;4.85;;
42972;SDS011;28610;51.214;6.962;2022-07-22T08:48:52;10.95;;;5.35;;
42972;SDS011;28610;51.214;6.962;2022-07-22T08:51:38;13.40;;;5.00;;
42972;SDS011;28610;51.214;6.962;2022-07-22T08:54:24;11.10;;;5.82;;
42972;SDS011;28610;51.214;6.962;2022-07-22T08:57:09;14.43;;;5.00;;
42972;SDS011;28610;51.214;6.962;2022-07-22T08:59:56;13.98;;;5.15;;
42972;SDS011;28610;51.214;6.962;2022-07-22T09:02:42;14.02;;;4.97;;
42972;SDS011;28610;51.214;6.962;2022-07-22T09:05:33;11.52;;;5.50;;
42972;SDS011;28610;51.214;6.962;2022-07-22T09:08:19;13.65;;;5.43;;
42972;SDS011;28610;51.214;6.962;2022-07-22T09:11:14;12.98;;;6.13;;
42972;SDS011;28610;51.214;6.962;2022-07-22T09:14:00;14.25;;;5.93;;
42972;SDS011;28610;51.214;6.962;2022-07-22T09:16:47;10.68;;;6.00;;
42972;SDS011;28610;51.214;6.962;2022-07-22T09:19:33;13.43;;;6.00;;
42972;SDS011;28610;51.214;6.962;2022-07-22T09:22:38;11.20;;;5.63;;
42972;SDS011;28610;51.214;6.962;2022-07-22T09:25:26;16.05;;;6.00;;
42972;SDS011;28610;51.214;6.962;2022-07-22T09:28:16;11.82;;;6.00;;
42972;SDS011;28610;51.214;6.962;2022-07-22T09:31:03;15.15;;;6.15;;
42972;SDS011;28610;51.214;6.962;2022-07-22T09:33:48;10.63;;;5.85;;
42972;SDS011;28610;51.214;6.962;2022-07-22T09:36:48;11.75;;;6.78;;
42972;SDS011;28610;51.214;6.962;2022-07-22T09:39:39;12.20;;;6.35;;
42972;SDS011;28610;51.214;6.962;2022-07-22T09:42:25;14.23;;;6.15;;
42972;SDS011;28610;51.214;6.962;2022-07-22T09:45:10;13.30;;;6.65;;
42972;SDS011;28610;51.214;6.962;2022-07-22T09:47:57;13.85;;;6.72;;
42972;SDS011;28610;51.214;6.962;2022-07-22T09:50:43;13.00;;;6.80;;
42972;SDS011;28610;51.214;6.962;2022-07-22T09:53:29;16.58;;;7.00;;
42972;SDS011;28610;51.214;6.962;2022-07-22T09:56:16;15.13;;;6.43;;
42972;SDS011;28610;51.214;6.962;2022-07-22T09:59:02;15.13;;;6.20;;
42972;SDS011;28610;51.214;6.962;2022-07-22T10:01:49;15.85;;;6.93;;
42972;SDS011;28610;51.214;6.962;2022-07-22T10:04:37;14.18;;;6.55;;
42972;SDS011;28610;51.214;6.962;2022-07-22T10:07:26;13.10;;;6.43;;
42972;SDS011;28610;51.214;6.962;2022-07-22T10:10:13;17.27;;;7.57;;
42972;SDS011;28610;51.214;6.962;2022-07-22T10:13:01;15.85;;;7.03;;
42972;SDS011;28610;51.214;6.962;2022-07-22T10:15:48;23.10;;;8.10;;
42972;SDS011;28610;51.214;6.962;2022-07-22T10:18:34;18.27;;;8.02;;
42972;SDS011;28610;51.214;6.962;2022-07-22T10:21:20;17.50;;;7.90;;
42972;SDS011;28610;51.214;6.962;2022-07-22T10:24:17;19.40;;;7.97;;
42972;SDS011;28610;51.214;6.962;2022-07-22T10:27:03;18.38;;;8.35;;
42972;SDS011;28610;51.214;6.962;2022-07-22T10:29:49;16.42;;;8.05;;
42972;SDS011;28610;51.214;6.962;2022-07-22T10:32:37;14.10;;;7.53;;
42972;SDS011;28610;51.214;6.962;2022-07-22T10:35:23;16.10;;;7.80;;
42972;SDS011;28610;51.214;6.962;2022-07-22T10:38:10;21.33;;;9.02;;
42972;SDS011;28610;51.214;6.962;2022-07-22T10:40:58;17.33;;;8.18;;
42972;SDS011;28610;51.214;6.962;2022-07-22T10:43:47;16.15;;;7.95;;
42972;SDS011;28610;51.214;6.962;2022-07-22T10:46:50;16.80;;;8.82;;
42972;SDS011;28610;51.214;6.962;2022-07-22T10:49:37;17.77;;;9.13;;
42972;SDS011;28610;51.214;6.962;2022-07-22T10:52:31;16.88;;;8.98;;
42972;SDS011;28610;51.214;6.962;2022-07-22T10:55:19;16.83;;;8.75;;
42972;SDS011;28610;51.214;6.962;2022-07-22T11:01:26;19.35;;;9.77;;
42972;SDS011;28610;51.214;6.962;2022-07-22T11:04:15;17.13;;;9.27;;
42972;SDS011;28610;51.214;6.962;2022-07-22T11:07:02;17.25;;;9.10;;
42972;SDS011;28610;51.214;6.962;2022-07-22T11:09:48;15.98;;;9.30;;
42972;SDS011;28610;51.214;6.962;2022-07-22T11:12:34;19.77;;;10.25;;
42972;SDS011;28610;51.214;6.962;2022-07-22T11:15:24;18.55;;;9.60;;
42972;SDS011;28610;51.214;6.962;2022-07-22T11:18:09;18.67;;;10.75;;
42972;SDS011;28610;51.214;6.962;2022-07-22T11:20:56;17.60;;;9.98;;
42972;SDS011;28610;51.214;6.962;2022-07-22T11:23:42;16.65;;;9.88;;
42972;SDS011;28610;51.214;6.962;2022-07-22T11:26:31;20.05;;;11.05;;
42972;SDS011;28610;51.214;6.962;2022-07-22T11:29:24;20.50;;;10.48;;
42972;SDS011;28610;51.214;6.962;2022-07-22T11:32:12;17.27;;;11.25;;
42972;SDS011;28610;51.214;6.962;2022-07-22T11:34:58;18.55;;;11.43;;
42972;SDS011;28610;51.214;6.962;2022-07-22T11:37:45;20.75;;;11.07;;
42972;SDS011;28610;51.214;6.962;2022-07-22T11:40:40;21.13;;;11.90;;
42972;SDS011;28610;51.214;6.962;2022-07-22T11:43:33;23.77;;;11.45;;
42972;SDS011;28610;51.214;6.962;2022-07-22T11:46:22;22.45;;;12.70;;
42972;SDS011;28610;51.214;6.962;2022-07-22T11:49:09;21.35;;;13.10;;
42972;SDS011;28610;51.214;6.962;2022-07-22T11:51:57;22.23;;;14.15;;
42972;SDS011;28610;51.214;6.962;2022-07-22T11:54:44;16.50;;;11.55;;
42972;SDS011;28610;51.214;6.962;2022-07-22T11:57:30;18.52;;;11.77;;
42972;SDS011;28610;51.214;6.962;2022-07-22T12:00:16;18.95;;;11.55;;
42972;SDS011;28610;51.214;6.962;2022-07-22T12:03:02;21.60;;;13.35;;
42972;SDS011;28610;51.214;6.962;2022-07-22T12:05:48;21.60;;;12.95;;
42972;SDS011;28610;51.214;6.962;2022-07-22T12:08:33;18.23;;;11.75;;
42972;SDS011;28610;51.214;6.962;2022-07-22T12:11:25;19.55;;;12.55;;
42972;SDS011;28610;51.214;6.962;2022-07-22T12:14:11;19.98;;;12.88;;
42972;SDS011;28610;51.214;6.962;2022-07-22T12:16:58;20.23;;;12.38;;
42972;SDS011;28610;51.214;6.962;2022-07-22T12:19:45;18.25;;;12.35;;
42972;SDS011;28610;51.214;6.962;2022-07-22T12:22:30;21.55;;;12.55;;
42972;SDS011;28610;51.214;6.962;2022-07-22T12:25:16;20.15;;;12.18;;
42972;SDS011;28610;51.214;6.962;2022-07-22T12:28:03;19.48;;;11.38;;
42972;SDS011;28610;51.214;6.962;2022-07-22T12:30:49;21.30;;;12.60;;
42972;SDS011;28610;51.214;6.962;2022-07-22T12:33:35;18.77;;;11.48;;
42972;SDS011;28610;51.214;6.962;2022-07-22T12:36:21;19.27;;;11.52;;
42972;SDS011;28610;51.214;6.962;2022-07-22T12:39:16;19.70;;;12.18;;
42972;SDS011;28610;51.214;6.962;2022-07-22T12:42:03;19.98;;;12.20;;
42972;SDS011;28610;51.214;6.962;2022-07-22T12:45:03;20.80;;;12.27;;
42972;SDS011;28610;51.214;6.962;2022-07-22T12:47:50;21.40;;;12.10;;
42972;SDS011;28610;51.214;6.962;2022-07-22T12:50:40;21.80;;;12.07;;
42972;SDS011;28610;51.214;6.962;2022-07-22T12:53:26;24.13;;;13.93;;
42972;SDS011;28610;51.214;6.962;2022-07-22T12:56:12;20.77;;;12.82;;
42972;SDS011;28610;51.214;6.962;2022-07-22T12:58:58;24.85;;;13.95;;
42972;SDS011;28610;51.214;6.962;2022-07-22T13:01:45;25.70;;;14.32;;
42972;SDS011;28610;51.214;6.962;2022-07-22T13:04:32;25.60;;;14.30;;
42972;SDS011;28610;51.214;6.962;2022-07-22T13:07:17;24.70;;;14.50;;
42972;SDS011;28610;51.214;6.962;2022-07-22T13:10:03;25.40;;;14.93;;
42972;SDS011;28610;51.214;6.962;2022-07-22T13:12:49;26.35;;;14.85;;
42972;SDS011;28610;51.214;6.962;2022-07-22T13:15:35;25.67;;;14.05;;
42972;SDS011;28610;51.214;6.962;2022-07-22T13:18:22;22.40;;;13.60;;
42972;SDS011;28610;51.214;6.962;2022-07-22T13:21:08;25.02;;;14.63;;
42972;SDS011;28610;51.214;6.962;2022-07-22T13:23:53;24.75;;;14.05;;
42972;SDS011;28610;51.214;6.962;2022-07-22T13:26:39;26.98;;;15.68;;
42972;SDS011;28610;51.214;6.962;2022-07-22T13:29:24;24.52;;;14.73;;
42972;SDS011;28610;51.214;6.962;2022-07-22T13:32:10;27.30;;;15.15;;
42972;SDS011;28610;51.214;6.962;2022-07-22T13:34:57;29.33;;;16.13;;
42972;SDS011;28610;51.214;6.962;2022-07-22T13:37:42;27.75;;;16.13;;
42972;SDS011;28610;51.214;6.962;2022-07-22T13:40:28;27.38;;;15.30;;
42972;SDS011;28610;51.214;6.962;2022-07-22T13:43:13;28.15;;;16.20;;
42972;SDS011;28610;51.214;6.962;2022-07-22T13:45:59;30.25;;;15.98;;
42972;SDS011;28610;51.214;6.962;2022-07-22T13:48:44;29.00;;;16.20;;
42972;SDS011;28610;51.214;6.962;2022-07-22T13:51:31;27.88;;;15.25;;
42972;SDS011;28610;51.214;6.962;2022-07-22T13:54:16;31.60;;;16.90;;
42972;SDS011;28610;51.214;6.962;2022-07-22T13:57:02;31.60;;;17.33;;
42972;SDS011;28610;51.214;6.962;2022-07-22T13:59:50;27.20;;;16.38;;
42972;SDS011;28610;51.214;6.962;2022-07-22T14:02:36;26.83;;;16.05;;
42972;SDS011;28610;51.214;6.962;2022-07-22T14:05:22;27.70;;;16.33;;
42972;SDS011;28610;51.214;6.962;2022-07-22T14:08:09;28.67;;;16.27;;
42972;SDS011;28610;51.214;6.962;2022-07-22T14:10:54;29.80;;;17.52;;
42972;SDS011;28610;51.214;6.962;2022-07-22T14:13:40;31.00;;;16.85;;
42972;SDS011;28610;51.214;6.962;2022-07-22T14:16:25;32.75;;;18.05;;
42972;SDS011;28610;51.214;6.962;2022-07-22T14:19:20;31.25;;;17.55;;
42972;SDS011;28610;51.214;6.962;2022-07-22T14:22:05;32.08;;;18.08;;
42972;SDS011;28610;51.214;6.962;2022-07-22T14:24:52;31.73;;;18.73;;
42972;SDS011;28610;51.214;6.962;2022-07-22T14:27:38;35.10;;;20.17;;
42972;SDS011;28610;51.214;6.962;2022-07-22T14:30:23;33.80;;;19.50;;
42972;SDS011;28610;51.214;6.962;2022-07-22T14:33:11;33.83;;;18.77;;
42972;SDS011;28610;51.214;6.962;2022-07-22T14:35:57;31.48;;;18.75;;
42972;SDS011;28610;51.214;6.962;2022-07-22T14:38:42;31.17;;;18.77;;
42972;SDS011;28610;51.214;6.962;2022-07-22T14:41:29;34.35;;;19.85;;
42972;SDS011;28610;51.214;6.962;2022-07-22T14:44:15;32.60;;;19.92;;
42972;SDS011;28610;51.214;6.962;2022-07-22T14:47:00;35.55;;;20.38;;
42972;SDS011;28610;51.214;6.962;2022-07-22T14:49:46;35.40;;;19.40;;
42972;SDS011;28610;51.214;6.962;2022-07-22T14:52:32;31.20;;;18.52;;
42972;SDS011;28610;51.214;6.962;2022-07-22T14:55:17;29.27;;;17.40;;
42972;SDS011;28610;51.214;6.962;2022-07-22T14:58:04;34.78;;;18.25;;
42972;SDS011;28610;51.214;6.962;2022-07-22T15:00:50;35.03;;;20.15;;
42972;SDS011;28610;51.214;6.962;2022-07-22T15:03:35;35.17;;;19.17;;
42972;SDS011;28610;51.214;6.962;2022-07-22T15:06:21;34.22;;;18.85;;
42972;SDS011;28610;51.214;6.962;2022-07-22T15:09:06;30.13;;;17.60;;
42972;SDS011;28610;51.214;6.962;2022-07-22T15:11:52;30.33;;;16.70;;
42972;SDS011;28610;51.214;6.962;2022-07-22T15:14:38;36.00;;;19.52;;
42972;SDS011;28610;51.214;6.962;2022-07-22T15:17:24;31.98;;;16.98;;
42972;SDS011;28610;51.214;6.962;2022-07-22T15:20:09;26.77;;;15.80;;
42972;SDS011;28610;51.214;6.962;2022-07-22T15:22:55;33.88;;;16.80;;
42972;SDS011;28610;51.214;6.962;2022-07-22T15:25:41;29.10;;;16.25;;
42972;SDS011;28610;51.214;6.962;2022-07-22T15:28:26;27.90;;;15.93;;
42972;SDS011;28610;51.214;6.962;2022-07-22T15:31:14;25.75;;;14.68;;
42972;SDS011;28610;51.214;6.962;2022-07-22T15:33:59;25.50;;;15.00;;
42972;SDS011;28610;51.214;6.962;2022-07-22T15:36:45;26.10;;;15.25;;
42972;SDS011;28610;51.214;6.962;2022-07-22T15:39:30;25.65;;;14.60;;
42972;SDS011;28610;51.214;6.962;2022-07-22T15:42:16;26.50;;;14.50;;
42972;SDS011;28610;51.214;6.962;2022-07-22T15:45:02;26.08;;;13.32;;
42972;SDS011;28610;51.214;6.962;2022-07-22T15:47:49;28.67;;;14.43;;
42972;SDS011;28610;51.214;6.962;2022-07-22T15:50:34;25.55;;;13.90;;
42972;SDS011;28610;51.214;6.962;2022-07-22T15:53:20;26.02;;;13.55;;
42972;SDS011;28610;51.214;6.962;2022-07-22T15:56:05;24.00;;;13.68;;
42972;SDS011;28610;51.214;6.962;2022-07-22T15:58:51;25.13;;;14.52;;
42972;SDS011;28610;51.214;6.962;2022-07-22T16:01:54;27.83;;;14.95;;
42972;SDS011;28610;51.214;6.962;2022-07-22T16:04:40;31.25;;;14.57;;
42972;SDS011;28610;51.214;6.962;2022-07-22T16:07:26;24.80;;;14.35;;
42972;SDS011;28610;51.214;6.962;2022-07-22T16:10:11;26.60;;;14.68;;
42972;SDS011;28610;51.214;6.962;2022-07-22T16:12:57;28.95;;;15.40;;
42972;SDS011;28610;51.214;6.962;2022-07-22T16:15:43;27.83;;;15.25;;
42972;SDS011;28610;51.214;6.962;2022-07-22T16:18:28;24.63;;;14.85;;
42972;SDS011;28610;51.214;6.962;2022-07-22T16:21:15;22.35;;;14.35;;